sensor_id;sensor_type;location;lat;lon;timestamp;P1;durP1;ratioP1;P2;durP2;ratioP2
74532;SDS011;63012;51.096;-115.366;2022-12-13T00:01:49;19.50;;;5.50;;
74532;SDS011;63012;51.096;-115.366;2022-12-13T00:04:19;13.10;;;3.90;;
74532;SDS011;63012;51.096;-115.366;2022-12-13T00:06:48;13.50;;;4.90;;
74532;SDS011;63012;51.096;-115.366;2022-12-13T00:09:17;14.50;;;4.50;;
74532;SDS011;63012;51.096;-115.366;2022-12-13T00:11:45;10.60;;;4.10;;
74532;SDS011;63012;51.096;-115.366;2022-12-13T00:14:14;12.40;;;4.20;;
74532;SDS011;63012;51.096;-115.366;2022-12-13T00:16:46;12.10;;;3.80;;
74532;SDS011;63012;51.096;-115.366;2022-12-13T00:19:15;11.20;;;4.40;;
74532;SDS011;63012;51.096;-115.366;2022-12-13T00:21:43;13.30;;;4.60;;
74532;SDS011;63012;51.096;-115.366;2022-12-13T00:24:10;12.10;;;4.60;;
74532;SDS011;63012;51.096;-115.366;2022-12-13T00:26:37;10.10;;;3.90;;
74532;SDS011;63012;51.096;-115.366;2022-12-13T00:29:06;11.50;;;4.60;;
74532;SDS011;63012;51.096;-115.366;2022-12-13T00:31:34;11.10;;;3.50;;
74532;SDS011;63012;51.096;-115.366;2022-12-13T00:34:01;11.40;;;4.60;;
74532;SDS011;63012;51.096;-115.366;2022-12-13T00:36:29;11.80;;;4.60;;
74532;SDS011;63012;51.096;-115.366;2022-12-13T00:38:56;13.50;;;4.30;;
74532;SDS011;63012;51.096;-115.366;2022-12-13T00:41:29;12.20;;;4.60;;
74532;SDS011;63012;51.096;-115.366;2022-12-13T00:43:58;13.80;;;4.30;;
74532;SDS011;63012;51.096;-115.366;2022-12-13T00:46:28;16.50;;;4.50;;
74532;SDS011;63012;51.096;-115.366;2022-12-13T00:48:57;12.40;;;4.40;;
74532;SDS011;63012;51.096;-115.366;2022-12-13T00:51:27;15.80;;;4.60;;
74532;SDS011;63012;51.096;-115.366;2022-12-13T00:53:56;11.30;;;4.40;;
74532;SDS011;63012;51.096;-115.366;2022-12-13T00:56:26;11.30;;;3.40;;
74532;SDS011;63012;51.096;-115.366;2022-12-13T00:58:55;13.30;;;4.40;;
74532;SDS011;63012;51.096;-115.366;2022-12-13T01:01:31;12.00;;;4.50;;
74532;SDS011;63012;51.096;-115.366;2022-12-13T01:04:03;11.10;;;3.70;;
74532;SDS011;63012;51.096;-115.366;2022-12-13T01:06:39;11.20;;;4.20;;
74532;SDS011;63012;51.096;-115.366;2022-12-13T01:09:22;11.20;;;3.00;;
74532;SDS011;63012;51.096;-115.366;2022-12-13T01:12:03;14.40;;;3.90;;
74532;SDS011;63012;51.096;-115.366;2022-12-13T01:14:35;15.40;;;5.00;;
74532;SDS011;63012;51.096;-115.366;2022-12-13T01:17:03;13.00;;;4.30;;
74532;SDS011;63012;51.096;-115.366;2022-12-13T01:19:31;11.90;;;4.30;;
74532;SDS011;63012;51.096;-115.366;2022-12-13T01:22:04;15.30;;;4.90;;
74532;SDS011;63012;51.096;-115.366;2022-12-13T01:24:32;10.50;;;3.30;;
74532;SDS011;63012;51.096;-115.366;2022-12-13T01:26:59;14.00;;;4.20;;
74532;SDS011;63012;51.096;-115.366;2022-12-13T01:29:27;12.70;;;4.50;;
74532;SDS011;63012;51.096;-115.366;2022-12-13T01:31:54;15.90;;;4.90;;
74532;SDS011;63012;51.096;-115.366;2022-12-13T01:34:22;12.60;;;4.60;;
74532;SDS011;63012;51.096;-115.366;2022-12-13T01:36:53;13.20;;;4.40;;
74532;SDS011;63012;51.096;-115.366;2022-12-13T01:39:22;11.80;;;3.60;;
74532;SDS011;63012;51.096;-115.366;2022-12-13T01:41:51;13.50;;;4.50;;
74532;SDS011;63012;51.096;-115.366;2022-12-13T01:47:39;15.60;;;4.00;;
74532;SDS011;63012;51.096;-115.366;2022-12-13T01:50:20;13.10;;;4.40;;
74532;SDS011;63012;51.096;-115.366;2022-12-13T01:52:55;13.70;;;5.30;;
74532;SDS011;63012;51.096;-115.366;2022-12-13T01:55:25;13.00;;;4.20;;
74532;SDS011;63012;51.096;-115.366;2022-12-13T01:57:57;11.80;;;4.00;;
74532;SDS011;63012;51.096;-115.366;2022-12-13T02:00:26;14.80;;;6.00;;
74532;SDS011;63012;51.096;-115.366;2022-12-13T02:02:56;16.40;;;4.60;;
74532;SDS011;63012;51.096;-115.366;2022-12-13T02:06:02;14.30;;;4.10;;
74532;SDS011;63012;51.096;-115.366;2022-12-13T02:08:32;14.10;;;4.10;;
74532;SDS011;63012;51.096;-115.366;2022-12-13T02:11:02;12.70;;;4.30;;
74532;SDS011;63012;51.096;-115.366;2022-12-13T02:13:30;10.90;;;4.10;;
74532;SDS011;63012;51.096;-115.366;2022-12-13T02:16:11;12.30;;;4.40;;
74532;SDS011;63012;51.096;-115.366;2022-12-13T02:19:11;10.90;;;4.20;;
74532;SDS011;63012;51.096;-115.366;2022-12-13T02:22:14;12.20;;;4.10;;
74532;SDS011;63012;51.096;-115.366;2022-12-13T02:31:30;10.40;;;3.20;;
74532;SDS011;63012;51.096;-115.366;2022-12-13T02:40:33;11.80;;;3.40;;
74532;SDS011;63012;51.096;-115.366;2022-12-13T02:43:11;10.50;;;3.40;;
74532;SDS011;63012;51.096;-115.366;2022-12-13T02:45:48;13.20;;;3.90;;
74532;SDS011;63012;51.096;-115.366;2022-12-13T02:48:22;12.50;;;3.60;;
74532;SDS011;63012;51.096;-115.366;2022-12-13T02:50:55;12.30;;;4.60;;
74532;SDS011;63012;51.096;-115.366;2022-12-13T02:53:25;13.20;;;3.80;;
74532;SDS011;63012;51.096;-115.366;2022-12-13T02:55:52;15.20;;;4.60;;
74532;SDS011;63012;51.096;-115.366;2022-12-13T02:58:23;8.90;;;3.20;;
74532;SDS011;63012;51.096;-115.366;2022-12-13T03:04:17;6.10;;;1.50;;
74532;SDS011;63012;51.096;-115.366;2022-12-13T03:07:20;12.20;;;3.40;;
74532;SDS011;63012;51.096;-115.366;2022-12-13T03:10:05;12.70;;;4.40;;
74532;SDS011;63012;51.096;-115.366;2022-12-13T03:12:52;12.50;;;4.30;;
74532;SDS011;63012;51.096;-115.366;2022-12-13T03:15:59;10.30;;;3.60;;
74532;SDS011;63012;51.096;-115.366;2022-12-13T03:18:32;10.10;;;3.80;;
74532;SDS011;63012;51.096;-115.366;2022-12-13T03:21:02;13.90;;;4.30;;
74532;SDS011;63012;51.096;-115.366;2022-12-13T03:23:32;12.50;;;3.80;;
74532;SDS011;63012;51.096;-115.366;2022-12-13T03:26:06;13.00;;;4.10;;
74532;SDS011;63012;51.096;-115.366;2022-12-13T03:28:36;10.90;;;3.80;;
74532;SDS011;63012;51.096;-115.366;2022-12-13T03:31:04;10.90;;;3.00;;
74532;SDS011;63012;51.096;-115.366;2022-12-13T03:33:31;11.60;;;4.20;;
74532;SDS011;63012;51.096;-115.366;2022-12-13T03:36:00;11.80;;;4.40;;
74532;SDS011;63012;51.096;-115.366;2022-12-13T03:38:29;10.30;;;3.80;;
74532;SDS011;63012;51.096;-115.366;2022-12-13T03:41:02;10.20;;;3.40;;
74532;SDS011;63012;51.096;-115.366;2022-12-13T03:43:32;10.70;;;2.90;;
74532;SDS011;63012;51.096;-115.366;2022-12-13T03:45:59;14.60;;;3.80;;
74532;SDS011;63012;51.096;-115.366;2022-12-13T03:48:26;8.70;;;3.00;;
74532;SDS011;63012;51.096;-115.366;2022-12-13T03:50:54;14.60;;;4.20;;
74532;SDS011;63012;51.096;-115.366;2022-12-13T03:53:22;10.30;;;3.50;;
74532;SDS011;63012;51.096;-115.366;2022-12-13T03:55:50;10.90;;;4.40;;
74532;SDS011;63012;51.096;-115.366;2022-12-13T03:58:17;6.90;;;1.50;;
74532;SDS011;63012;51.096;-115.366;2022-12-13T04:00:44;9.50;;;3.20;;
74532;SDS011;63012;51.096;-115.366;2022-12-13T04:03:11;9.90;;;3.10;;
74532;SDS011;63012;51.096;-115.366;2022-12-13T04:05:38;9.90;;;2.80;;
74532;SDS011;63012;51.096;-115.366;2022-12-13T04:08:06;8.80;;;2.80;;
74532;SDS011;63012;51.096;-115.366;2022-12-13T04:10:33;8.00;;;2.30;;
74532;SDS011;63012;51.096;-115.366;2022-12-13T04:13:00;11.10;;;2.50;;
74532;SDS011;63012;51.096;-115.366;2022-12-13T04:15:46;11.10;;;2.90;;
74532;SDS011;63012;51.096;-115.366;2022-12-13T04:18:17;13.70;;;2.20;;
74532;SDS011;63012;51.096;-115.366;2022-12-13T04:20:45;11.90;;;1.80;;
74532;SDS011;63012;51.096;-115.366;2022-12-13T04:23:12;11.50;;;2.70;;
74532;SDS011;63012;51.096;-115.366;2022-12-13T04:25:41;8.00;;;2.70;;
74532;SDS011;63012;51.096;-115.366;2022-12-13T04:28:09;15.50;;;2.90;;
74532;SDS011;63012;51.096;-115.366;2022-12-13T04:30:36;13.10;;;2.90;;
74532;SDS011;63012;51.096;-115.366;2022-12-13T04:33:03;8.00;;;2.10;;
74532;SDS011;63012;51.096;-115.366;2022-12-13T04:35:30;11.90;;;2.80;;
74532;SDS011;63012;51.096;-115.366;2022-12-13T04:37:57;10.40;;;2.00;;
74532;SDS011;63012;51.096;-115.366;2022-12-13T04:40:25;9.40;;;2.40;;
74532;SDS011;63012;51.096;-115.366;2022-12-13T04:42:52;8.40;;;2.10;;
74532;SDS011;63012;51.096;-115.366;2022-12-13T04:45:20;6.90;;;1.70;;
74532;SDS011;63012;51.096;-115.366;2022-12-13T04:47:48;7.20;;;1.60;;
74532;SDS011;63012;51.096;-115.366;2022-12-13T04:50:15;7.60;;;1.80;;
74532;SDS011;63012;51.096;-115.366;2022-12-13T04:52:42;7.10;;;1.90;;
74532;SDS011;63012;51.096;-115.366;2022-12-13T04:55:10;7.50;;;2.10;;
74532;SDS011;63012;51.096;-115.366;2022-12-13T04:57:38;9.00;;;2.30;;
74532;SDS011;63012;51.096;-115.366;2022-12-13T05:00:07;8.90;;;2.40;;
74532;SDS011;63012;51.096;-115.366;2022-12-13T05:02:38;6.70;;;2.00;;
74532;SDS011;63012;51.096;-115.366;2022-12-13T05:05:09;7.70;;;1.90;;
74532;SDS011;63012;51.096;-115.366;2022-12-13T05:07:38;7.50;;;2.10;;
74532;SDS011;63012;51.096;-115.366;2022-12-13T05:10:05;11.90;;;2.10;;
74532;SDS011;63012;51.096;-115.366;2022-12-13T05:12:33;10.20;;;2.50;;
74532;SDS011;63012;51.096;-115.366;2022-12-13T05:15:00;7.10;;;1.90;;
74532;SDS011;63012;51.096;-115.366;2022-12-13T05:17:27;7.40;;;2.10;;
74532;SDS011;63012;51.096;-115.366;2022-12-13T05:19:54;7.70;;;1.90;;
74532;SDS011;63012;51.096;-115.366;2022-12-13T05:22:21;6.90;;;1.40;;
74532;SDS011;63012;51.096;-115.366;2022-12-13T05:24:48;4.80;;;1.20;;
74532;SDS011;63012;51.096;-115.366;2022-12-13T05:27:15;8.90;;;2.00;;
74532;SDS011;63012;51.096;-115.366;2022-12-13T05:29:43;12.30;;;2.20;;
74532;SDS011;63012;51.096;-115.366;2022-12-13T05:32:10;7.40;;;1.40;;
74532;SDS011;63012;51.096;-115.366;2022-12-13T05:34:37;11.30;;;1.50;;
74532;SDS011;63012;51.096;-115.366;2022-12-13T05:37:04;5.10;;;1.00;;
74532;SDS011;63012;51.096;-115.366;2022-12-13T05:39:31;5.00;;;1.60;;
74532;SDS011;63012;51.096;-115.366;2022-12-13T05:41:58;9.70;;;1.50;;
74532;SDS011;63012;51.096;-115.366;2022-12-13T05:44:26;5.50;;;1.70;;
74532;SDS011;63012;51.096;-115.366;2022-12-13T05:46:53;7.70;;;1.40;;
74532;SDS011;63012;51.096;-115.366;2022-12-13T05:49:20;4.10;;;1.20;;
74532;SDS011;63012;51.096;-115.366;2022-12-13T05:51:47;12.60;;;1.40;;
74532;SDS011;63012;51.096;-115.366;2022-12-13T05:54:14;9.80;;;2.00;;
74532;SDS011;63012;51.096;-115.366;2022-12-13T05:56:41;10.30;;;1.80;;
74532;SDS011;63012;51.096;-115.366;2022-12-13T05:59:08;8.40;;;1.20;;
74532;SDS011;63012;51.096;-115.366;2022-12-13T06:01:36;9.10;;;1.20;;
74532;SDS011;63012;51.096;-115.366;2022-12-13T06:04:03;7.30;;;1.40;;
74532;SDS011;63012;51.096;-115.366;2022-12-13T06:06:30;4.80;;;1.00;;
74532;SDS011;63012;51.096;-115.366;2022-12-13T06:08:58;9.60;;;0.90;;
74532;SDS011;63012;51.096;-115.366;2022-12-13T06:11:25;3.30;;;0.60;;
74532;SDS011;63012;51.096;-115.366;2022-12-13T06:13:53;5.60;;;0.80;;
74532;SDS011;63012;51.096;-115.366;2022-12-13T06:16:20;5.10;;;1.10;;
74532;SDS011;63012;51.096;-115.366;2022-12-13T06:18:47;10.60;;;1.70;;
74532;SDS011;63012;51.096;-115.366;2022-12-13T06:21:14;7.00;;;1.30;;
74532;SDS011;63012;51.096;-115.366;2022-12-13T06:23:41;12.30;;;1.30;;
74532;SDS011;63012;51.096;-115.366;2022-12-13T06:26:08;6.50;;;1.00;;
74532;SDS011;63012;51.096;-115.366;2022-12-13T06:28:35;5.00;;;1.10;;
74532;SDS011;63012;51.096;-115.366;2022-12-13T06:31:03;6.50;;;1.50;;
74532;SDS011;63012;51.096;-115.366;2022-12-13T06:33:30;7.80;;;1.70;;
74532;SDS011;63012;51.096;-115.366;2022-12-13T06:36:02;6.70;;;1.40;;
74532;SDS011;63012;51.096;-115.366;2022-12-13T06:38:30;4.20;;;0.90;;
74532;SDS011;63012;51.096;-115.366;2022-12-13T06:41:12;4.00;;;1.00;;
74532;SDS011;63012;51.096;-115.366;2022-12-13T06:43:44;4.20;;;1.00;;
74532;SDS011;63012;51.096;-115.366;2022-12-13T06:46:13;10.30;;;1.20;;
74532;SDS011;63012;51.096;-115.366;2022-12-13T06:48:40;6.50;;;0.90;;
74532;SDS011;63012;51.096;-115.366;2022-12-13T06:51:08;12.60;;;1.10;;
74532;SDS011;63012;51.096;-115.366;2022-12-13T06:53:37;5.40;;;1.10;;
74532;SDS011;63012;51.096;-115.366;2022-12-13T06:56:12;4.10;;;0.90;;
74532;SDS011;63012;51.096;-115.366;2022-12-13T06:58:41;5.80;;;1.00;;
74532;SDS011;63012;51.096;-115.366;2022-12-13T07:01:11;5.10;;;1.00;;
74532;SDS011;63012;51.096;-115.366;2022-12-13T07:03:39;3.40;;;0.50;;
74532;SDS011;63012;51.096;-115.366;2022-12-13T07:08:46;3.80;;;0.80;;
74532;SDS011;63012;51.096;-115.366;2022-12-13T07:11:16;5.70;;;0.70;;
74532;SDS011;63012;51.096;-115.366;2022-12-13T07:13:45;3.40;;;0.70;;
74532;SDS011;63012;51.096;-115.366;2022-12-13T07:16:12;3.00;;;0.40;;
74532;SDS011;63012;51.096;-115.366;2022-12-13T07:18:40;2.30;;;0.60;;
74532;SDS011;63012;51.096;-115.366;2022-12-13T07:21:10;4.20;;;1.00;;
74532;SDS011;63012;51.096;-115.366;2022-12-13T07:23:39;4.00;;;0.80;;
74532;SDS011;63012;51.096;-115.366;2022-12-13T07:26:07;3.60;;;0.80;;
74532;SDS011;63012;51.096;-115.366;2022-12-13T07:28:36;4.30;;;1.00;;
74532;SDS011;63012;51.096;-115.366;2022-12-13T07:31:06;4.10;;;0.90;;
74532;SDS011;63012;51.096;-115.366;2022-12-13T07:33:35;3.10;;;0.40;;
74532;SDS011;63012;51.096;-115.366;2022-12-13T07:36:08;4.80;;;0.90;;
74532;SDS011;63012;51.096;-115.366;2022-12-13T07:38:38;6.60;;;0.70;;
74532;SDS011;63012;51.096;-115.366;2022-12-13T07:41:06;4.50;;;0.80;;
74532;SDS011;63012;51.096;-115.366;2022-12-13T07:43:34;4.10;;;0.90;;
74532;SDS011;63012;51.096;-115.366;2022-12-13T07:46:04;6.30;;;0.70;;
74532;SDS011;63012;51.096;-115.366;2022-12-13T07:48:33;8.20;;;1.00;;
74532;SDS011;63012;51.096;-115.366;2022-12-13T07:51:02;5.20;;;0.80;;
74532;SDS011;63012;51.096;-115.366;2022-12-13T07:53:37;5.10;;;0.70;;
74532;SDS011;63012;51.096;-115.366;2022-12-13T07:56:09;2.90;;;0.50;;
74532;SDS011;63012;51.096;-115.366;2022-12-13T07:58:37;2.70;;;0.60;;
74532;SDS011;63012;51.096;-115.366;2022-12-13T08:01:08;3.30;;;0.80;;
74532;SDS011;63012;51.096;-115.366;2022-12-13T08:03:37;4.50;;;0.60;;
74532;SDS011;63012;51.096;-115.366;2022-12-13T08:06:10;4.70;;;0.70;;
74532;SDS011;63012;51.096;-115.366;2022-12-13T08:08:38;7.20;;;0.60;;
74532;SDS011;63012;51.096;-115.366;2022-12-13T08:11:08;1.60;;;0.40;;
74532;SDS011;63012;51.096;-115.366;2022-12-13T08:13:37;2.80;;;0.60;;
74532;SDS011;63012;51.096;-115.366;2022-12-13T08:16:07;5.90;;;0.70;;
74532;SDS011;63012;51.096;-115.366;2022-12-13T08:18:36;3.40;;;0.80;;
74532;SDS011;63012;51.096;-115.366;2022-12-13T08:21:06;3.20;;;0.50;;
74532;SDS011;63012;51.096;-115.366;2022-12-13T08:23:36;2.70;;;0.60;;
74532;SDS011;63012;51.096;-115.366;2022-12-13T08:26:04;5.20;;;1.40;;
74532;SDS011;63012;51.096;-115.366;2022-12-13T08:28:32;1.90;;;0.50;;
74532;SDS011;63012;51.096;-115.366;2022-12-13T08:31:18;3.90;;;0.70;;
74532;SDS011;63012;51.096;-115.366;2022-12-13T08:33:45;5.00;;;0.70;;
74532;SDS011;63012;51.096;-115.366;2022-12-13T08:36:15;2.80;;;0.60;;
74532;SDS011;63012;51.096;-115.366;2022-12-13T08:38:44;2.00;;;0.50;;
74532;SDS011;63012;51.096;-115.366;2022-12-13T08:41:12;7.80;;;0.60;;
74532;SDS011;63012;51.096;-115.366;2022-12-13T08:43:39;2.60;;;0.50;;
74532;SDS011;63012;51.096;-115.366;2022-12-13T08:46:07;2.50;;;0.40;;
74532;SDS011;63012;51.096;-115.366;2022-12-13T08:48:34;3.20;;;0.60;;
74532;SDS011;63012;51.096;-115.366;2022-12-13T08:51:06;3.10;;;0.80;;
74532;SDS011;63012;51.096;-115.366;2022-12-13T08:53:40;4.10;;;0.70;;
74532;SDS011;63012;51.096;-115.366;2022-12-13T08:56:10;2.60;;;0.60;;
74532;SDS011;63012;51.096;-115.366;2022-12-13T08:58:38;2.70;;;0.80;;
74532;SDS011;63012;51.096;-115.366;2022-12-13T09:01:06;2.80;;;1.00;;
74532;SDS011;63012;51.096;-115.366;2022-12-13T09:03:35;3.30;;;0.70;;
74532;SDS011;63012;51.096;-115.366;2022-12-13T09:06:14;4.20;;;0.40;;
74532;SDS011;63012;51.096;-115.366;2022-12-13T09:08:43;2.80;;;0.50;;
74532;SDS011;63012;51.096;-115.366;2022-12-13T09:11:11;3.50;;;0.40;;
74532;SDS011;63012;51.096;-115.366;2022-12-13T09:13:39;2.00;;;0.50;;
74532;SDS011;63012;51.096;-115.366;2022-12-13T09:16:09;3.60;;;0.50;;
74532;SDS011;63012;51.096;-115.366;2022-12-13T09:18:43;3.80;;;0.70;;
74532;SDS011;63012;51.096;-115.366;2022-12-13T09:21:12;4.50;;;0.50;;
74532;SDS011;63012;51.096;-115.366;2022-12-13T09:23:41;3.50;;;0.50;;
74532;SDS011;63012;51.096;-115.366;2022-12-13T09:26:11;3.80;;;0.40;;
74532;SDS011;63012;51.096;-115.366;2022-12-13T09:28:40;3.90;;;0.70;;
74532;SDS011;63012;51.096;-115.366;2022-12-13T09:31:09;2.10;;;0.40;;
74532;SDS011;63012;51.096;-115.366;2022-12-13T09:33:37;3.70;;;0.70;;
74532;SDS011;63012;51.096;-115.366;2022-12-13T09:36:05;7.10;;;0.50;;
74532;SDS011;63012;51.096;-115.366;2022-12-13T09:38:35;6.90;;;0.60;;
74532;SDS011;63012;51.096;-115.366;2022-12-13T09:44:02;13.10;;;0.70;;
74532;SDS011;63012;51.096;-115.366;2022-12-13T09:46:45;6.00;;;0.50;;
74532;SDS011;63012;51.096;-115.366;2022-12-13T09:52:02;4.70;;;0.70;;
74532;SDS011;63012;51.096;-115.366;2022-12-13T09:54:32;3.60;;;0.70;;
74532;SDS011;63012;51.096;-115.366;2022-12-13T09:56:59;2.00;;;0.30;;
74532;SDS011;63012;51.096;-115.366;2022-12-13T09:59:32;7.20;;;0.80;;
74532;SDS011;63012;51.096;-115.366;2022-12-13T10:02:24;1.40;;;0.30;;
74532;SDS011;63012;51.096;-115.366;2022-12-13T10:04:52;4.80;;;0.60;;
74532;SDS011;63012;51.096;-115.366;2022-12-13T10:07:23;3.80;;;0.50;;
74532;SDS011;63012;51.096;-115.366;2022-12-13T10:09:58;3.40;;;0.70;;
74532;SDS011;63012;51.096;-115.366;2022-12-13T10:12:27;1.60;;;0.30;;
74532;SDS011;63012;51.096;-115.366;2022-12-13T10:14:58;1.60;;;0.30;;
74532;SDS011;63012;51.096;-115.366;2022-12-13T10:17:35;2.20;;;0.40;;
74532;SDS011;63012;51.096;-115.366;2022-12-13T10:20:11;4.10;;;0.60;;
74532;SDS011;63012;51.096;-115.366;2022-12-13T10:22:46;7.00;;;0.60;;
74532;SDS011;63012;51.096;-115.366;2022-12-13T10:25:13;4.20;;;0.80;;
74532;SDS011;63012;51.096;-115.366;2022-12-13T10:27:46;1.70;;;0.30;;
74532;SDS011;63012;51.096;-115.366;2022-12-13T10:30:18;3.70;;;0.50;;
74532;SDS011;63012;51.096;-115.366;2022-12-13T10:32:59;2.40;;;0.40;;
74532;SDS011;63012;51.096;-115.366;2022-12-13T10:38:02;2.50;;;0.40;;
74532;SDS011;63012;51.096;-115.366;2022-12-13T10:40:48;4.10;;;0.60;;
74532;SDS011;63012;51.096;-115.366;2022-12-13T10:43:19;3.80;;;0.80;;
74532;SDS011;63012;51.096;-115.366;2022-12-13T10:45:57;12.80;;;0.70;;
74532;SDS011;63012;51.096;-115.366;2022-12-13T10:51:08;3.80;;;0.50;;
74532;SDS011;63012;51.096;-115.366;2022-12-13T10:53:48;1.80;;;0.30;;
74532;SDS011;63012;51.096;-115.366;2022-12-13T10:56:20;2.70;;;0.40;;
74532;SDS011;63012;51.096;-115.366;2022-12-13T11:05:26;3.30;;;0.40;;
74532;SDS011;63012;51.096;-115.366;2022-12-13T11:08:23;3.20;;;0.50;;
74532;SDS011;63012;51.096;-115.366;2022-12-13T11:11:04;2.90;;;0.50;;
74532;SDS011;63012;51.096;-115.366;2022-12-13T11:13:53;4.60;;;0.50;;
74532;SDS011;63012;51.096;-115.366;2022-12-13T11:16:32;2.50;;;0.40;;
74532;SDS011;63012;51.096;-115.366;2022-12-13T11:19:19;5.70;;;0.70;;
74532;SDS011;63012;51.096;-115.366;2022-12-13T11:21:49;8.00;;;0.90;;
74532;SDS011;63012;51.096;-115.366;2022-12-13T11:24:27;5.30;;;0.60;;
74532;SDS011;63012;51.096;-115.366;2022-12-13T11:27:26;2.60;;;0.40;;
74532;SDS011;63012;51.096;-115.366;2022-12-13T11:30:21;2.70;;;0.50;;
74532;SDS011;63012;51.096;-115.366;2022-12-13T11:33:26;2.20;;;0.40;;
74532;SDS011;63012;51.096;-115.366;2022-12-13T11:36:22;2.00;;;0.40;;
74532;SDS011;63012;51.096;-115.366;2022-12-13T11:39:40;3.90;;;0.60;;
74532;SDS011;63012;51.096;-115.366;2022-12-13T11:42:42;4.00;;;0.60;;
74532;SDS011;63012;51.096;-115.366;2022-12-13T11:45:19;2.70;;;0.50;;
74532;SDS011;63012;51.096;-115.366;2022-12-13T11:48:01;6.80;;;0.60;;
74532;SDS011;63012;51.096;-115.366;2022-12-13T11:50:47;2.70;;;0.50;;
74532;SDS011;63012;51.096;-115.366;2022-12-13T12:02:34;4.60;;;0.70;;
74532;SDS011;63012;51.096;-115.366;2022-12-13T12:05:36;1.30;;;0.30;;
74532;SDS011;63012;51.096;-115.366;2022-12-13T12:14:26;9.10;;;1.30;;
74532;SDS011;63012;51.096;-115.366;2022-12-13T12:17:12;6.80;;;0.50;;
74532;SDS011;63012;51.096;-115.366;2022-12-13T12:19:43;2.00;;;0.50;;
74532;SDS011;63012;51.096;-115.366;2022-12-13T12:22:39;2.60;;;0.70;;
74532;SDS011;63012;51.096;-115.366;2022-12-13T12:25:29;3.80;;;0.60;;
74532;SDS011;63012;51.096;-115.366;2022-12-13T12:43:29;6.40;;;0.60;;
74532;SDS011;63012;51.096;-115.366;2022-12-13T12:46:28;2.40;;;0.50;;
74532;SDS011;63012;51.096;-115.366;2022-12-13T12:49:23;3.80;;;0.50;;
74532;SDS011;63012;51.096;-115.366;2022-12-13T12:54:51;2.00;;;0.50;;
74532;SDS011;63012;51.096;-115.366;2022-12-13T12:57:40;2.30;;;0.50;;
74532;SDS011;63012;51.096;-115.366;2022-12-13T13:03:42;3.90;;;0.40;;
74532;SDS011;63012;51.096;-115.366;2022-12-13T13:06:29;4.20;;;0.50;;
74532;SDS011;63012;51.096;-115.366;2022-12-13T13:09:05;1.90;;;0.50;;
74532;SDS011;63012;51.096;-115.366;2022-12-13T13:11:36;3.30;;;0.50;;
74532;SDS011;63012;51.096;-115.366;2022-12-13T13:14:29;4.20;;;0.70;;
74532;SDS011;63012;51.096;-115.366;2022-12-13T13:17:00;2.30;;;0.60;;
74532;SDS011;63012;51.096;-115.366;2022-12-13T13:19:53;2.40;;;0.70;;
74532;SDS011;63012;51.096;-115.366;2022-12-13T13:22:38;2.30;;;0.50;;
74532;SDS011;63012;51.096;-115.366;2022-12-13T13:27:40;1.50;;;0.30;;
74532;SDS011;63012;51.096;-115.366;2022-12-13T13:30:23;2.10;;;0.40;;
74532;SDS011;63012;51.096;-115.366;2022-12-13T13:32:53;4.20;;;0.50;;
74532;SDS011;63012;51.096;-115.366;2022-12-13T13:41:39;2.60;;;0.60;;
74532;SDS011;63012;51.096;-115.366;2022-12-13T13:44:59;3.50;;;0.70;;
74532;SDS011;63012;51.096;-115.366;2022-12-13T13:47:34;2.40;;;0.50;;
74532;SDS011;63012;51.096;-115.366;2022-12-13T13:53:14;4.80;;;0.80;;
74532;SDS011;63012;51.096;-115.366;2022-12-13T13:56:23;2.10;;;0.30;;
74532;SDS011;63012;51.096;-115.366;2022-12-13T14:11:19;1.90;;;0.50;;
74532;SDS011;63012;51.096;-115.366;2022-12-13T14:14:51;2.40;;;0.70;;
74532;SDS011;63012;51.096;-115.366;2022-12-13T14:23:38;3.90;;;0.70;;
74532;SDS011;63012;51.096;-115.366;2022-12-13T14:26:24;5.00;;;0.50;;
74532;SDS011;63012;51.096;-115.366;2022-12-13T14:29:17;7.10;;;1.10;;
74532;SDS011;63012;51.096;-115.366;2022-12-13T14:31:49;5.70;;;0.60;;
74532;SDS011;63012;51.096;-115.366;2022-12-13T14:34:26;5.60;;;0.50;;
74532;SDS011;63012;51.096;-115.366;2022-12-13T14:37:04;6.50;;;0.70;;
74532;SDS011;63012;51.096;-115.366;2022-12-13T14:39:44;5.90;;;0.60;;
74532;SDS011;63012;51.096;-115.366;2022-12-13T14:42:30;2.70;;;0.60;;
74532;SDS011;63012;51.096;-115.366;2022-12-13T14:45:30;7.70;;;0.60;;
74532;SDS011;63012;51.096;-115.366;2022-12-13T14:48:13;4.40;;;0.60;;
74532;SDS011;63012;51.096;-115.366;2022-12-13T14:50:43;2.80;;;0.60;;
74532;SDS011;63012;51.096;-115.366;2022-12-13T14:53:35;3.80;;;0.40;;
74532;SDS011;63012;51.096;-115.366;2022-12-13T14:56:12;3.70;;;0.60;;
74532;SDS011;63012;51.096;-115.366;2022-12-13T14:58:51;3.80;;;0.50;;
74532;SDS011;63012;51.096;-115.366;2022-12-13T15:01:29;9.20;;;0.80;;
74532;SDS011;63012;51.096;-115.366;2022-12-13T15:09:52;5.50;;;0.60;;
74532;SDS011;63012;51.096;-115.366;2022-12-13T15:12:30;4.60;;;0.50;;
74532;SDS011;63012;51.096;-115.366;2022-12-13T15:15:03;2.70;;;0.30;;
74532;SDS011;63012;51.096;-115.366;2022-12-13T15:17:37;1.40;;;0.30;;
74532;SDS011;63012;51.096;-115.366;2022-12-13T15:20:27;2.40;;;0.30;;
74532;SDS011;63012;51.096;-115.366;2022-12-13T15:23:03;2.90;;;0.50;;
74532;SDS011;63012;51.096;-115.366;2022-12-13T15:25:40;1.50;;;0.30;;
74532;SDS011;63012;51.096;-115.366;2022-12-13T15:28:11;6.70;;;0.70;;
74532;SDS011;63012;51.096;-115.366;2022-12-13T15:30:40;4.20;;;0.70;;
74532;SDS011;63012;51.096;-115.366;2022-12-13T15:33:28;7.00;;;0.50;;
74532;SDS011;63012;51.096;-115.366;2022-12-13T15:36:16;5.40;;;0.90;;
74532;SDS011;63012;51.096;-115.366;2022-12-13T15:44:07;4.80;;;0.50;;
74532;SDS011;63012;51.096;-115.366;2022-12-13T15:47:10;3.60;;;0.60;;
74532;SDS011;63012;51.096;-115.366;2022-12-13T15:50:27;4.00;;;0.50;;
74532;SDS011;63012;51.096;-115.366;2022-12-13T15:53:26;3.90;;;0.40;;
74532;SDS011;63012;51.096;-115.366;2022-12-13T15:55:53;2.80;;;0.60;;
74532;SDS011;63012;51.096;-115.366;2022-12-13T15:58:34;6.60;;;0.60;;
74532;SDS011;63012;51.096;-115.366;2022-12-13T16:01:03;2.70;;;0.50;;
74532;SDS011;63012;51.096;-115.366;2022-12-13T16:03:50;7.50;;;0.60;;
74532;SDS011;63012;51.096;-115.366;2022-12-13T16:06:19;3.70;;;0.70;;
74532;SDS011;63012;51.096;-115.366;2022-12-13T16:08:57;2.30;;;0.40;;
74532;SDS011;63012;51.096;-115.366;2022-12-13T16:11:33;4.30;;;0.70;;
74532;SDS011;63012;51.096;-115.366;2022-12-13T16:19:55;2.10;;;0.40;;
74532;SDS011;63012;51.096;-115.366;2022-12-13T16:22:25;3.00;;;0.40;;
74532;SDS011;63012;51.096;-115.366;2022-12-13T16:24:52;2.00;;;0.40;;
74532;SDS011;63012;51.096;-115.366;2022-12-13T16:27:21;1.70;;;0.40;;
74532;SDS011;63012;51.096;-115.366;2022-12-13T16:29:48;3.30;;;0.70;;
74532;SDS011;63012;51.096;-115.366;2022-12-13T16:32:15;3.30;;;0.80;;
74532;SDS011;63012;51.096;-115.366;2022-12-13T16:34:42;2.10;;;0.40;;
74532;SDS011;63012;51.096;-115.366;2022-12-13T16:37:10;2.10;;;0.60;;
74532;SDS011;63012;51.096;-115.366;2022-12-13T16:39:40;4.50;;;0.40;;
74532;SDS011;63012;51.096;-115.366;2022-12-13T16:42:07;2.90;;;0.60;;
74532;SDS011;63012;51.096;-115.366;2022-12-13T16:44:37;3.10;;;0.70;;
74532;SDS011;63012;51.096;-115.366;2022-12-13T16:47:09;1.50;;;0.30;;
74532;SDS011;63012;51.096;-115.366;2022-12-13T16:49:38;1.30;;;0.30;;